createdAt,value
2023-01-11T00:02:16.841Z,98033.88
2023-01-11T00:04:44.383Z,98030.31
2023-01-11T00:07:11.883Z,98033.03
2023-01-11T00:09:39.613Z,98032.72
2023-01-11T00:12:08.718Z,98042.75
2023-01-11T00:14:36.303Z,98040.88
2023-01-11T00:17:03.823Z,98026.09
2023-01-11T00:19:31.238Z,98027.09
2023-01-11T00:21:58.686Z,98031.84
2023-01-11T00:24:26.101Z,98024.28
2023-01-11T00:26:53.575Z,98029.50
2023-01-11T00:29:22.540Z,98028.56
2023-01-11T00:31:49.928Z,98023.06
2023-01-11T00:34:17.527Z,98023.78
2023-01-11T00:36:44.978Z,98009.47
2023-01-11T00:39:12.456Z,98006.38
2023-01-11T00:41:57.624Z,97991.38
2023-01-11T00:44:44.240Z,97987.88
2023-01-11T00:47:32.655Z,97992.19
2023-01-11T00:50:00.286Z,97990.13
2023-01-11T00:52:28.111Z,97984.59
2023-01-11T00:54:55.624Z,97983.72
2023-01-11T00:57:23.145Z,97982.88
2023-01-11T00:59:51.947Z,97976.88
2023-01-11T01:02:19.652Z,97975.03
2023-01-11T01:04:47.115Z,97974.91
2023-01-11T01:07:14.601Z,97964.81
2023-01-11T01:09:42.062Z,97960.88
2023-01-11T01:12:10.041Z,97967.22
2023-01-11T01:14:36.666Z,97955.56
2023-01-11T01:17:07.637Z,97957.78
2023-01-11T01:19:37.391Z,97964.03
2023-01-11T01:22:05.025Z,97957.75
2023-01-11T01:24:33.795Z,97962.16
2023-01-11T01:27:01.663Z,97959.91
2023-01-11T01:29:29.157Z,97961.19
2023-01-11T01:31:56.601Z,97953.22
2023-01-11T01:34:25.684Z,97956.09
2023-01-11T01:36:53.153Z,97937.72
2023-01-11T01:39:20.597Z,97937.81
2023-01-11T01:41:48.131Z,97940.16
2023-01-11T01:44:57.841Z,97946.09
2023-01-11T01:47:30.667Z,97939.94
2023-01-11T01:50:02.019Z,97940.94
2023-01-11T01:52:29.811Z,97934.16
2023-01-11T01:55:00.461Z,97936.22
2023-01-11T01:57:31.929Z,97930.06
2023-01-11T02:00:03.769Z,97925.84
2023-01-11T02:02:31.332Z,97939.56
2023-01-11T02:05:00.842Z,97923.00
2023-01-11T02:07:32.629Z,97917.72
2023-01-11T02:10:03.206Z,97911.28
2023-01-11T02:12:33.505Z,97910.44
2023-01-11T02:15:02.334Z,97914.31
2023-01-11T02:17:29.797Z,97907.41
2023-01-11T02:20:10.185Z,97905.78
2023-01-11T02:23:07.180Z,97908.94
2023-01-11T02:26:17.645Z,97896.66
2023-01-11T02:28:54.980Z,97897.56
2023-01-11T02:31:32.396Z,97890.50
2023-01-11T02:34:11.661Z,97881.88
2023-01-11T02:36:49.238Z,97890.84
2023-01-11T02:39:24.724Z,97895.31
2023-01-11T02:42:15.024Z,97895.22
2023-01-11T02:45:02.982Z,97887.13
2023-01-11T02:47:38.586Z,97886.34
2023-01-11T02:50:14.259Z,97881.44
2023-01-11T02:52:51.093Z,97882.88
2023-01-11T02:55:24.600Z,97877.53
2023-01-11T02:57:54.764Z,97878.91
2023-01-11T03:00:25.198Z,97883.50
2023-01-11T03:03:11.020Z,97877.72
2023-01-11T03:05:44.861Z,97875.88
2023-01-11T03:08:26.379Z,97867.72
2023-01-11T03:11:03.751Z,97864.94
2023-01-11T03:13:41.568Z,97863.19
2023-01-11T03:16:25.408Z,97866.47
2023-01-11T03:19:00.995Z,97857.22
2023-01-11T03:21:42.895Z,97856.72
2023-01-11T03:24:16.536Z,97858.66
2023-01-11T03:27:03.950Z,97856.19
2023-01-11T03:29:33.817Z,97854.03
2023-01-11T03:32:14.105Z,97846.59
2023-01-11T03:34:49.671Z,97836.44
2023-01-11T03:37:23.725Z,97835.47
2023-01-11T03:40:00.531Z,97836.44
2023-01-11T03:42:29.904Z,97826.53
2023-01-11T03:45:00.409Z,97825.59
2023-01-11T03:47:32.917Z,97823.06
2023-01-11T03:50:04.373Z,97820.34
2023-01-11T03:52:35.355Z,97812.66
2023-01-11T03:55:06.835Z,97811.69
2023-01-11T03:57:38.522Z,97804.16
2023-01-11T04:00:08.661Z,97805.59
2023-01-11T04:02:41.014Z,97803.53
2023-01-11T04:05:11.832Z,97800.09
2023-01-11T04:07:39.534Z,97810.34
2023-01-11T04:10:08.403Z,97803.94
2023-01-11T04:12:35.868Z,97806.09
2023-01-11T04:15:05.136Z,97800.97
2023-01-11T04:17:32.929Z,97796.13
2023-01-11T04:20:01.783Z,97796.97
2023-01-11T04:22:29.239Z,97800.44
2023-01-11T04:24:56.707Z,97809.13
2023-01-11T04:27:24.204Z,97810.66
2023-01-11T04:29:51.645Z,97808.63
2023-01-11T04:32:19.170Z,97812.47
2023-01-11T04:34:46.634Z,97816.22
2023-01-11T04:37:15.457Z,97813.91
2023-01-11T04:39:42.890Z,97814.25
2023-01-11T04:42:18.557Z,97803.63
2023-01-11T04:44:47.813Z,97802.16
2023-01-11T04:47:16.118Z,97805.97
2023-01-11T04:49:43.577Z,97808.94
2023-01-11T04:52:12.593Z,97802.50
2023-01-11T04:54:41.480Z,97800.13
2023-01-11T04:57:13.004Z,97794.69
2023-01-11T04:59:40.558Z,97798.19
2023-01-11T05:02:07.993Z,97804.69
2023-01-11T05:04:35.558Z,97799.41
2023-01-11T05:07:03.157Z,97803.19
2023-01-11T05:09:30.682Z,97796.34
2023-01-11T05:11:59.473Z,97793.22
2023-01-11T05:14:27.008Z,97795.88
2023-01-11T05:16:54.550Z,97787.25
2023-01-11T05:19:22.021Z,97785.25
2023-01-11T05:21:49.497Z,97769.81
2023-01-11T05:24:17.419Z,97770.00
2023-01-11T05:26:46.053Z,97766.66
2023-01-11T05:29:17.018Z,97767.53
2023-01-11T05:31:44.727Z,97767.19
2023-01-11T05:34:13.679Z,97760.91
2023-01-11T05:36:42.063Z,97763.22
2023-01-11T05:39:11.395Z,97749.66
2023-01-11T05:41:38.871Z,97749.47
2023-01-11T05:44:23.931Z,97748.34
2023-01-11T05:46:52.801Z,97742.84
2023-01-11T05:49:20.256Z,97742.50
2023-01-11T05:51:47.679Z,97734.53
2023-01-11T05:54:15.913Z,97735.56
2023-01-11T05:56:43.522Z,97730.56
2023-01-11T05:59:12.294Z,97731.06
2023-01-11T06:01:40.180Z,97731.06
2023-01-11T06:04:09.057Z,97726.44
2023-01-11T06:06:36.878Z,97727.63
2023-01-11T06:09:04.591Z,97725.25
2023-01-11T06:11:33.288Z,97731.41
2023-01-11T06:14:00.721Z,97727.91
2023-01-11T06:16:28.296Z,97736.94
2023-01-11T06:18:55.816Z,97732.25
2023-01-11T06:21:25.090Z,97733.59
2023-01-11T06:23:52.728Z,97733.44
2023-01-11T06:26:22.625Z,97731.44
2023-01-11T06:28:50.739Z,97736.75
2023-01-11T06:31:18.683Z,97740.91
2023-01-11T06:33:47.077Z,97739.41
2023-01-11T06:36:15.857Z,97735.78
2023-01-11T06:38:45.177Z,97730.78
2023-01-11T06:41:13.953Z,97731.78
2023-01-11T06:43:42.606Z,97734.78
2023-01-11T06:46:14.754Z,97727.31
2023-01-11T06:48:42.562Z,97726.13
2023-01-11T06:51:10.946Z,97718.84
2023-01-11T06:53:39.148Z,97718.50
2023-01-11T06:56:09.164Z,97707.69
2023-01-11T06:58:37.726Z,97708.34
2023-01-11T07:01:07.003Z,97708.34
2023-01-11T07:03:35.285Z,97709.84
2023-01-11T07:06:04.332Z,97712.69
2023-01-11T07:08:31.924Z,97707.03
2023-01-11T07:10:59.436Z,97703.53
2023-01-11T07:13:28.513Z,97706.19
2023-01-11T07:15:58.224Z,97706.69
2023-01-11T07:18:25.738Z,97706.69
2023-01-11T07:20:53.267Z,97708.69
2023-01-11T07:23:20.906Z,97706.69
2023-01-11T07:25:49.336Z,97704.53
2023-01-11T07:28:17.049Z,97708.84
2023-01-11T07:30:57.441Z,97709.53
2023-01-11T07:33:26.190Z,97703.19
2023-01-11T07:35:53.762Z,97712.00
2023-01-11T07:38:21.633Z,97712.69
2023-01-11T07:40:49.100Z,97706.03
2023-01-11T07:43:15.746Z,97707.19
2023-01-11T07:45:47.860Z,97709.34
2023-01-11T07:48:20.551Z,97704.53
2023-01-11T07:50:54.838Z,97699.03
2023-01-11T07:53:25.292Z,97696.53
2023-01-11T07:55:52.752Z,97690.72
2023-01-11T07:58:20.203Z,97695.38
2023-01-11T08:00:48.986Z,97693.38
2023-01-11T08:03:16.575Z,97686.88
2023-01-11T08:05:44.094Z,97679.91
2023-01-11T08:10:38.751Z,97686.38
2023-01-11T08:13:31.164Z,97683.41
2023-01-11T08:16:00.448Z,97682.56
2023-01-11T08:18:27.961Z,97677.72
2023-01-11T08:20:55.430Z,97684.72
2023-01-11T08:23:22.870Z,97681.19
2023-01-11T08:25:50.360Z,97686.34
2023-01-11T08:28:17.868Z,97688.53
2023-01-11T08:30:45.478Z,97689.16
2023-01-11T08:33:14.333Z,97700.97
2023-01-11T08:35:41.813Z,97701.16
2023-01-11T08:38:09.281Z,97697.81
2023-01-11T08:40:36.758Z,97706.47
2023-01-11T08:43:04.300Z,97700.09
2023-01-11T08:45:31.752Z,97695.28
2023-01-11T08:48:00.493Z,97692.59
2023-01-11T08:50:29.311Z,97689.81
2023-01-11T08:52:56.798Z,97683.13
2023-01-11T08:55:24.256Z,97686.63
2023-01-11T08:57:51.756Z,97696.78
2023-01-11T09:00:22.025Z,97694.63
2023-01-11T09:02:49.515Z,97695.63
2023-01-11T09:05:18.363Z,97690.13
2023-01-11T09:07:47.441Z,97679.81
2023-01-11T09:10:14.780Z,97693.44
2023-01-11T09:12:42.084Z,97676.13
2023-01-11T09:15:10.423Z,97684.44
2023-01-11T09:17:37.852Z,97679.75
2023-01-11T09:20:06.184Z,97680.09
2023-01-11T09:22:33.759Z,97680.59
2023-01-11T09:25:02.571Z,97676.09
2023-01-11T09:27:30.046Z,97677.41
2023-01-11T09:29:57.608Z,97674.03
2023-01-11T09:32:25.217Z,97666.50
2023-01-11T09:34:57.138Z,97663.91
2023-01-11T09:37:24.686Z,97657.53
2023-01-11T09:39:52.592Z,97660.19
2023-01-11T09:42:35.271Z,97660.84
2023-01-11T09:45:11.030Z,97657.81
2023-01-11T09:47:42.117Z,97648.78
2023-01-11T09:50:16.378Z,97642.78
2023-01-11T09:52:47.297Z,97642.09
2023-01-11T09:55:21.161Z,97637.81
2023-01-11T09:58:00.687Z,97637.75
2023-01-11T10:00:37.438Z,97639.53
2023-01-11T10:03:30.059Z,97630.53
2023-01-11T10:06:10.754Z,97644.81
2023-01-11T10:18:33.078Z,97644.28
2023-01-11T10:18:33.757Z,97631.06
2023-01-11T10:20:47.671Z,97614.47
2023-01-11T10:23:21.453Z,97607.97
2023-01-11T10:25:51.576Z,97601.44
2023-01-11T10:28:29.343Z,97607.50
2023-01-11T10:31:11.776Z,97600.59
2023-01-11T10:33:57.441Z,97603.78
2023-01-11T10:36:51.583Z,97598.66
2023-01-11T10:39:39.639Z,97595.94
2023-01-11T10:42:12.501Z,97592.59
2023-01-11T10:44:47.042Z,97588.38
2023-01-11T10:47:19.215Z,97591.47
2023-01-11T10:49:52.868Z,97591.16
2023-01-11T10:52:36.896Z,97589.63
2023-01-11T10:55:13.843Z,97591.97
2023-01-11T10:57:59.367Z,97591.63
2023-01-11T11:00:36.355Z,97590.78
2023-01-11T11:03:40.432Z,97590.25
2023-01-11T11:06:19.113Z,97592.63
2023-01-11T11:08:55.019Z,97590.63
2023-01-11T11:11:31.301Z,97591.63
2023-01-11T11:14:04.839Z,97591.69
2023-01-11T11:16:45.222Z,97590.97
2023-01-11T11:19:20.687Z,97587.66
2023-01-11T11:21:49.277Z,97588.38
2023-01-11T11:24:23.513Z,97583.22
2023-01-11T11:26:57.101Z,97577.41
2023-01-11T11:29:30.518Z,97578.06
2023-01-11T11:32:00.747Z,97575.13
2023-01-11T11:34:30.828Z,97573.47
2023-01-11T11:37:01.479Z,97569.59
2023-01-11T11:39:31.153Z,97566.09
2023-01-11T11:42:06.391Z,97566.47
2023-01-11T11:44:34.294Z,97563.78
2023-01-11T11:47:03.260Z,97560.75
2023-01-11T11:49:33.962Z,97562.94
2023-01-11T11:52:03.358Z,97557.63
2023-01-11T11:54:33.013Z,97559.28
2023-01-11T11:57:14.662Z,97556.16
2023-01-11T11:59:47.272Z,97553.25
2023-01-11T12:02:24.446Z,97540.97
2023-01-11T12:04:54.494Z,97547.63
2023-01-11T12:07:24.159Z,97546.41
2023-01-11T12:09:59.595Z,97546.16
2023-01-11T12:12:29.541Z,97537.78
2023-01-11T12:15:18.126Z,97534.91
2023-01-11T12:17:45.596Z,97541.44
2023-01-11T12:20:35.684Z,97539.25
2023-01-11T12:23:23.600Z,97535.94
2023-01-11T12:26:15.965Z,97537.41
2023-01-11T12:29:10.898Z,97529.41
2023-01-11T12:31:50.489Z,97533.53
2023-01-11T12:34:34.282Z,97534.09
2023-01-11T12:37:10.426Z,97535.03
2023-01-11T12:39:49.050Z,97525.53
2023-01-11T12:42:48.308Z,97519.75
2023-01-11T12:45:25.584Z,97528.13
2023-01-11T12:48:16.082Z,97530.63
2023-01-11T12:50:56.302Z,97529.78
2023-01-11T12:53:46.147Z,97532.91
2023-01-11T12:56:32.485Z,97527.28
2023-01-11T12:59:03.577Z,97539.41
2023-01-11T13:01:42.187Z,97536.56
2023-01-11T13:04:24.477Z,97530.16
2023-01-11T13:07:00.929Z,97522.94
2023-01-11T13:09:43.238Z,97522.41
2023-01-11T13:12:19.391Z,97525.63
2023-01-11T13:15:01.449Z,97528.75
2023-01-11T13:17:37.224Z,97530.25
2023-01-11T13:20:26.550Z,97524.06
2023-01-11T13:22:59.580Z,97529.41
2023-01-11T13:25:30.833Z,97532.16
2023-01-11T13:28:01.164Z,97526.09
2023-01-11T13:30:29.579Z,97528.75
2023-01-11T13:33:00.927Z,97523.91
2023-01-11T13:35:37.277Z,97530.88
2023-01-11T13:38:16.482Z,97520.88
2023-01-11T13:40:49.659Z,97528.31
2023-01-11T13:43:21.480Z,97529.97
2023-01-11T13:45:53.527Z,97524.63
2023-01-11T13:48:28.225Z,97537.78
2023-01-11T13:51:04.469Z,97533.13
2023-01-11T13:53:39.875Z,97540.09
2023-01-11T13:56:21.359Z,97528.78
2023-01-11T13:58:53.659Z,97529.63
2023-01-11T14:01:31.591Z,97530.91
2023-01-11T14:04:04.979Z,97530.47
2023-01-11T14:06:44.634Z,97535.22
2023-01-11T14:09:28.175Z,97544.50
2023-01-11T14:12:04.443Z,97548.28
2023-01-11T14:14:51.020Z,97551.06
2023-01-11T14:17:36.326Z,97553.56
2023-01-11T14:20:15.460Z,97548.31
2023-01-11T14:22:53.735Z,97553.25
2023-01-11T14:25:25.388Z,97556.59
2023-01-11T14:28:06.667Z,97554.00
2023-01-11T14:30:59.660Z,97560.38
2023-01-11T14:34:05.946Z,97567.81
2023-01-11T14:37:11.722Z,97568.28
2023-01-11T14:40:05.004Z,97581.63
2023-01-11T14:42:56.867Z,97575.28
2023-01-11T14:45:45.664Z,97577.47
2023-01-11T14:48:26.161Z,97579.16
2023-01-11T14:51:23.952Z,97587.16
2023-01-11T14:54:01.475Z,97592.97
2023-01-11T14:56:48.762Z,97596.09
2023-01-11T14:59:26.131Z,97584.03
2023-01-11T15:02:18.293Z,97598.31
2023-01-11T15:05:11.716Z,97604.81
2023-01-11T15:07:41.958Z,97606.84
2023-01-11T15:10:55.498Z,97608.50
2023-01-11T15:13:26.135Z,97614.03
2023-01-11T15:16:27.996Z,97613.94
2023-01-11T15:18:57.183Z,97607.31
2023-01-11T15:21:27.724Z,97615.03
2023-01-11T15:23:57.738Z,97619.81
2023-01-11T15:26:27.521Z,97620.09
2023-01-11T15:28:57.042Z,97612.91
2023-01-11T15:31:50.698Z,97621.31
2023-01-11T15:34:25.636Z,97631.72
2023-01-11T15:37:17.431Z,97632.72
2023-01-11T15:39:51.217Z,97630.03
2023-01-11T15:42:44.634Z,97645.75
2023-01-11T15:45:58.946Z,97638.97
2023-01-11T15:48:36.760Z,97644.06
2023-01-11T15:51:30.149Z,97648.25
2023-01-11T15:54:07.161Z,97645.22
2023-01-11T15:56:53.409Z,97668.25
2023-01-11T15:59:54.404Z,97660.78
2023-01-11T16:03:07.406Z,97668.78
2023-01-11T16:05:38.433Z,97674.78
2023-01-11T16:08:23.802Z,97671.75
2023-01-11T16:11:07.715Z,97685.25
2023-01-11T16:13:49.053Z,97692.91
2023-01-11T16:16:21.047Z,97708.13
2023-01-11T16:18:54.058Z,97705.44
2023-01-11T16:21:31.493Z,97695.09
2023-01-11T16:24:00.839Z,97702.22
2023-01-11T16:26:30.068Z,97697.31
2023-01-11T16:28:59.246Z,97705.53
2023-01-11T16:31:27.422Z,97712.63
2023-01-11T16:33:57.071Z,97717.66
2023-01-11T16:36:25.023Z,97711.97
2023-01-11T16:39:01.570Z,97720.97
2023-01-11T16:41:39.539Z,97718.97
2023-01-11T16:44:09.835Z,97722.34
2023-01-11T16:47:07.140Z,97737.94
2023-01-11T16:49:35.440Z,97737.34
2023-01-11T16:52:41.416Z,97743.81
2023-01-11T16:55:22.060Z,97747.19
2023-01-11T16:57:54.344Z,97759.06
2023-01-11T17:00:32.184Z,97755.38
2023-01-11T17:03:31.650Z,97748.09
2023-01-11T17:06:04.231Z,97747.59
2023-01-11T17:08:35.202Z,97746.63
2023-01-11T17:11:06.871Z,97752.72
2023-01-11T17:14:01.180Z,97759.13
2023-01-11T17:16:30.926Z,97764.97
2023-01-11T17:19:01.138Z,97771.00
2023-01-11T17:21:30.396Z,97778.31
2023-01-11T17:24:01.189Z,97783.44
2023-01-11T17:26:31.571Z,97784.91
2023-01-11T17:29:01.473Z,97790.09
2023-01-11T17:31:31.926Z,97790.63
2023-01-11T17:34:05.702Z,97796.00
2023-01-11T17:36:33.938Z,97801.81
2023-01-11T17:39:02.436Z,97807.63
2023-01-11T17:41:48.922Z,97805.84
2023-01-11T17:44:38.363Z,97810.31
2023-01-11T17:47:08.386Z,97805.47
2023-01-11T17:49:38.773Z,97807.31
2023-01-11T17:52:21.081Z,97806.69
2023-01-11T17:54:49.836Z,97811.66
2023-01-11T17:57:18.753Z,97811.03
2023-01-11T17:59:47.599Z,97812.38
2023-01-11T18:02:15.217Z,97816.69
2023-01-11T18:04:43.788Z,97818.19
2023-01-11T18:07:17.777Z,97824.16
2023-01-11T18:09:47.801Z,97818.34
2023-01-11T18:12:18.836Z,97828.91
2023-01-11T18:14:54.117Z,97831.88
2023-01-11T18:17:31.740Z,97827.19
2023-01-11T18:20:00.859Z,97835.56
2023-01-11T18:22:30.653Z,97833.06
2023-01-11T18:24:59.301Z,97828.72
2023-01-11T18:27:31.781Z,97834.09
2023-01-11T18:30:08.455Z,97838.44
2023-01-11T18:32:41.744Z,97838.94
2023-01-11T18:35:17.655Z,97838.63
2023-01-11T18:37:46.044Z,97841.50
2023-01-11T18:40:14.935Z,97846.31
2023-01-11T18:42:43.326Z,97857.09
2023-01-11T18:45:13.625Z,97848.63
2023-01-11T18:47:41.133Z,97856.97
2023-01-11T18:50:11.026Z,97863.84
2023-01-11T18:52:40.636Z,97864.00
2023-01-11T18:55:12.238Z,97870.16
2023-01-11T18:57:39.794Z,97873.16
2023-01-11T19:00:08.845Z,97873.47
2023-01-11T19:02:42.745Z,97877.84
2023-01-11T19:05:13.178Z,97884.69
2023-01-11T19:07:43.866Z,97879.34
2023-01-11T19:10:14.797Z,97872.91
2023-01-11T19:12:43.273Z,97882.72
2023-01-11T19:15:11.822Z,97886.03
2023-01-11T19:17:43.583Z,97876.69
2023-01-11T19:20:13.879Z,97876.38
2023-01-11T19:22:41.894Z,97883.56
2023-01-11T19:25:10.413Z,97886.91
2023-01-11T19:27:40.797Z,97886.22
2023-01-11T19:30:09.603Z,97890.38
2023-01-11T19:32:44.253Z,97908.22
2023-01-11T19:35:13.114Z,97902.91
2023-01-11T19:37:43.385Z,97911.75
2023-01-11T19:40:11.988Z,97912.25
2023-01-11T19:42:41.357Z,97922.91
2023-01-11T19:45:09.989Z,97922.25
2023-01-11T19:47:37.628Z,97925.56
2023-01-11T19:50:05.799Z,97925.25
2023-01-11T19:52:34.757Z,97930.94
2023-01-11T19:55:02.242Z,97927.06
2023-01-11T19:57:29.969Z,97928.09
2023-01-11T19:59:57.446Z,97929.94
2023-01-11T20:02:24.952Z,97928.25
2023-01-11T20:04:52.629Z,97929.75
2023-01-11T20:07:20.285Z,97928.75
2023-01-11T20:09:49.111Z,97940.94
2023-01-11T20:12:16.475Z,97934.28
2023-01-11T20:14:46.781Z,97940.09
2023-01-11T20:17:15.690Z,97941.75
2023-01-11T20:19:43.188Z,97937.59
2023-01-11T20:22:10.692Z,97952.25
2023-01-11T20:24:38.130Z,97954.94
2023-01-11T20:27:07.016Z,97953.44
2023-01-11T20:29:34.632Z,97955.75
2023-01-11T20:32:24.594Z,97952.59
2023-01-11T20:34:49.554Z,97964.94
2023-01-11T20:37:17.072Z,97956.09
2023-01-11T20:39:44.560Z,97964.13
2023-01-11T20:42:13.422Z,97955.28
2023-01-11T20:44:40.807Z,97973.59
2023-01-11T20:47:08.284Z,97972.25
2023-01-11T20:49:35.753Z,97971.91
2023-01-11T20:52:03.591Z,97985.25
2023-01-11T20:54:31.216Z,97985.44
2023-01-11T20:57:02.043Z,97987.25
2023-01-11T20:59:32.159Z,97991.06
2023-01-11T21:01:59.724Z,97995.75
2023-01-11T21:04:27.215Z,97990.28
2023-01-11T21:06:54.696Z,97992.59
2023-01-11T21:09:23.943Z,97998.91
2023-01-11T21:11:53.907Z,98001.72
2023-01-11T21:14:21.636Z,98012.94
2023-01-11T21:16:50.510Z,98016.41
2023-01-11T21:19:18.297Z,98014.91
2023-01-11T21:21:45.964Z,98015.09
2023-01-11T21:24:16.222Z,98013.44
2023-01-11T21:26:45.623Z,98022.06
2023-01-11T21:29:13.626Z,98022.56
2023-01-11T21:31:42.431Z,98026.91
2023-01-11T21:34:12.954Z,98034.91
2023-01-11T21:36:44.160Z,98036.09
2023-01-11T21:39:13.990Z,98031.59
2023-01-11T21:41:55.563Z,98039.69
2023-01-11T21:44:27.293Z,98041.72
2023-01-11T21:46:54.960Z,98039.69
2023-01-11T21:49:24.230Z,98044.16
2023-01-11T21:51:52.689Z,98044.84
2023-01-11T21:54:20.599Z,98052.03
2023-01-11T21:56:49.302Z,98050.84
2023-01-11T21:59:17.387Z,98042.53
2023-01-11T22:01:46.857Z,98053.38
2023-01-11T22:04:17.160Z,98046.75
2023-01-11T22:06:51.004Z,98044.03
2023-01-11T22:09:19.124Z,98049.38
2023-01-11T22:11:46.900Z,98046.34
2023-01-11T22:14:14.539Z,98046.34
2023-01-11T22:16:42.219Z,98045.69
2023-01-11T22:19:09.838Z,98047.16
2023-01-11T22:21:38.445Z,98049.19
2023-01-11T22:24:10.313Z,98040.88
2023-01-11T22:26:38.859Z,98050.13
2023-01-11T22:29:14.856Z,98059.66
2023-01-11T22:31:45.165Z,98055.97
2023-01-11T22:34:13.617Z,98063.63
2023-01-11T22:36:41.455Z,98070.63
2023-01-11T22:39:10.610Z,98063.97
2023-01-11T22:41:39.953Z,98070.81
2023-01-11T22:44:07.901Z,98077.28
2023-01-11T22:46:35.794Z,98085.13
2023-01-11T22:49:04.754Z,98086.13
2023-01-11T22:51:32.392Z,98075.94
2023-01-11T22:53:59.843Z,98079.09
2023-01-11T22:56:29.381Z,98077.78
2023-01-11T22:58:57.693Z,98077.25
2023-01-11T23:01:27.111Z,98070.94
2023-01-11T23:03:55.393Z,98063.09
2023-01-11T23:06:25.478Z,98072.59
2023-01-11T23:08:54.077Z,98076.97
2023-01-11T23:11:37.121Z,98081.28
2023-01-11T23:14:08.363Z,98075.09
2023-01-11T23:16:36.648Z,98065.97
2023-01-11T23:19:05.164Z,98070.25
2023-01-11T23:21:32.883Z,98066.44
2023-01-11T23:24:01.554Z,98067.41
2023-01-11T23:26:29.321Z,98071.78
2023-01-11T23:28:57.321Z,98076.06
2023-01-11T23:31:27.927Z,98069.81
2023-01-11T23:33:56.561Z,98075.09
2023-01-11T23:36:27.371Z,98069.59
2023-01-11T23:38:54.865Z,98068.91
2023-01-11T23:41:40.713Z,98065.47
2023-01-11T23:44:09.973Z,98070.13
2023-01-11T23:46:57.714Z,98071.81
2023-01-11T23:49:25.462Z,98066.75
2023-01-11T23:51:53.581Z,98060.47
2023-01-11T23:54:21.428Z,98057.78
2023-01-11T23:56:49.110Z,98057.78
2023-01-11T23:59:16.603Z,98045.28
